createdAt,value
2023-05-23T00:01:09.211Z,11.33
2023-05-23T00:03:36.654Z,11.32
2023-05-23T00:06:06.071Z,10.99
2023-05-23T00:08:32.697Z,10.90
2023-05-23T00:10:59.525Z,10.85
2023-05-23T00:13:26.837Z,10.81
2023-05-23T00:15:53.565Z,10.76
2023-05-23T00:18:22.285Z,10.72
2023-05-23T00:20:48.994Z,10.68
2023-05-23T00:23:19.200Z,10.61
2023-05-23T00:25:53.014Z,10.63
2023-05-23T00:28:20.390Z,10.73
2023-05-23T00:30:47.336Z,10.76
2023-05-23T00:33:14.625Z,10.66
2023-05-23T00:35:42.521Z,10.74
2023-05-23T00:38:11.626Z,10.76
2023-05-23T00:40:38.519Z,10.77
2023-05-23T00:43:05.191Z,10.73
2023-05-23T00:45:32.092Z,10.64
2023-05-23T00:48:00.348Z,10.57
2023-05-23T00:50:31.807Z,10.45
2023-05-23T00:53:00.765Z,10.43
2023-05-23T00:55:28.591Z,10.32
2023-05-23T00:57:58.700Z,10.16
2023-05-23T01:00:26.394Z,9.97
2023-05-23T01:02:53.665Z,9.73
2023-05-23T01:05:22.904Z,9.61
2023-05-23T01:07:51.663Z,9.72
2023-05-23T01:13:25.741Z,9.68
2023-05-23T01:16:07.821Z,9.53
2023-05-23T01:18:48.657Z,9.43
2023-05-23T01:21:19.669Z,9.52
2023-05-23T01:24:21.792Z,9.56
2023-05-23T01:27:31.211Z,9.54
2023-05-23T01:30:00.850Z,9.46
2023-05-23T01:32:29.650Z,9.44
2023-05-23T01:34:57.226Z,9.32
2023-05-23T01:37:23.947Z,9.32
2023-05-23T01:39:50.870Z,9.26
2023-05-23T01:42:18.397Z,9.32
2023-05-23T01:44:46.220Z,9.41
2023-05-23T01:47:14.743Z,9.53
2023-05-23T01:49:42.105Z,9.54
2023-05-23T01:52:12.159Z,9.62
2023-05-23T01:54:39.312Z,9.51
2023-05-23T01:57:06.806Z,9.62
2023-05-23T01:59:33.628Z,9.56
2023-05-23T02:02:00.440Z,9.70
2023-05-23T02:04:28.475Z,9.68
2023-05-23T02:06:55.064Z,9.72
2023-05-23T02:09:21.760Z,9.77
2023-05-23T02:11:48.515Z,9.81
2023-05-23T02:14:15.217Z,9.88
2023-05-23T02:16:41.967Z,9.85
2023-05-23T02:19:08.754Z,9.86
2023-05-23T02:21:35.908Z,9.96
2023-05-23T02:24:02.597Z,9.97
2023-05-23T02:26:29.449Z,9.98
2023-05-23T02:28:56.129Z,9.90
2023-05-23T02:31:23.605Z,9.98
2023-05-23T02:33:50.488Z,10.05
2023-05-23T02:36:17.252Z,10.04
2023-05-23T02:38:43.912Z,9.94
2023-05-23T02:41:12.406Z,10.03
2023-05-23T02:43:39.479Z,10.01
2023-05-23T02:46:06.257Z,9.94
2023-05-23T02:48:32.895Z,10.02
2023-05-23T02:50:59.725Z,9.99
2023-05-23T02:53:27.022Z,9.93
2023-05-23T02:55:53.745Z,9.88
2023-05-23T02:58:20.846Z,9.83
2023-05-23T03:00:47.633Z,9.77
2023-05-23T03:03:14.296Z,9.97
2023-05-23T03:05:42.161Z,10.00
2023-05-23T03:08:09.011Z,9.87
2023-05-23T03:10:36.335Z,9.90
2023-05-23T03:13:03.037Z,9.91
2023-05-23T03:15:29.700Z,9.95
2023-05-23T03:17:56.410Z,9.96
2023-05-23T03:20:23.000Z,10.13
2023-05-23T03:22:49.666Z,10.17
2023-05-23T03:25:16.918Z,10.25
2023-05-23T03:27:43.664Z,10.29
2023-05-23T03:30:10.846Z,10.22
2023-05-23T03:32:37.592Z,10.19
2023-05-23T03:35:04.789Z,10.29
2023-05-23T03:37:31.454Z,10.21
2023-05-23T03:39:58.217Z,10.05
2023-05-23T03:42:24.949Z,10.12
2023-05-23T03:44:51.653Z,10.18
2023-05-23T03:47:18.250Z,10.21
2023-05-23T03:49:45.572Z,10.16
2023-05-23T03:52:12.356Z,10.11
2023-05-23T03:54:39.035Z,10.07
2023-05-23T03:57:05.989Z,10.10
2023-05-23T03:59:32.586Z,10.05
2023-05-23T04:02:00.472Z,9.95
2023-05-23T04:04:28.157Z,9.98
2023-05-23T04:06:54.967Z,9.95
2023-05-23T04:09:21.808Z,10.19
2023-05-23T04:11:48.801Z,10.15
2023-05-23T04:14:15.564Z,10.11
2023-05-23T04:16:42.396Z,10.17
2023-05-23T04:19:09.180Z,10.28
2023-05-23T04:21:36.147Z,10.21
2023-05-23T04:24:03.215Z,10.29
2023-05-23T04:26:30.440Z,10.16
2023-05-23T04:28:57.449Z,10.21
2023-05-23T04:31:25.168Z,10.28
2023-05-23T04:33:57.325Z,10.24
2023-05-23T04:36:26.303Z,10.54
2023-05-23T04:38:54.296Z,9.87
2023-05-23T04:41:24.126Z,10.75
2023-05-23T04:43:54.895Z,10.77
2023-05-23T04:46:41.046Z,10.84
2023-05-23T04:49:09.624Z,10.10
2023-05-23T04:51:39.224Z,10.44
2023-05-23T04:54:07.305Z,10.43
2023-05-23T04:56:37.537Z,10.91
2023-05-23T04:59:10.414Z,10.71
2023-05-23T05:01:41.438Z,10.61
2023-05-23T05:04:08.915Z,11.03
2023-05-23T05:06:38.582Z,10.68
2023-05-23T05:09:06.041Z,10.54
2023-05-23T05:11:36.751Z,11.03
2023-05-23T05:14:07.119Z,10.78
2023-05-23T05:16:34.976Z,11.33
2023-05-23T05:19:03.122Z,11.02
2023-05-23T05:21:30.584Z,11.32
2023-05-23T05:23:58.293Z,11.24
2023-05-23T05:26:25.849Z,10.86
2023-05-23T05:28:53.820Z,11.39
2023-05-23T05:31:23.808Z,11.38
2023-05-23T05:33:59.531Z,11.24
2023-05-23T05:36:27.032Z,10.38
2023-05-23T05:38:56.573Z,10.39
2023-05-23T05:41:26.556Z,10.98
2023-05-23T05:43:54.234Z,11.12
2023-05-23T05:46:22.043Z,11.21
2023-05-23T05:48:54.485Z,11.29
2023-05-23T05:51:22.165Z,11.66
2023-05-23T05:53:52.816Z,11.19
2023-05-23T05:56:25.604Z,11.70
2023-05-23T05:58:53.053Z,11.74
2023-05-23T06:01:27.084Z,12.13
2023-05-23T06:03:54.586Z,12.73
2023-05-23T06:06:24.406Z,12.69
2023-05-23T06:08:51.578Z,13.04
2023-05-23T06:11:22.872Z,13.00
2023-05-23T06:13:50.077Z,13.08
2023-05-23T06:16:18.950Z,12.90
2023-05-23T06:18:46.583Z,12.82
2023-05-23T06:21:20.521Z,13.77
2023-05-23T06:23:47.752Z,13.77
2023-05-23T06:26:15.353Z,14.12
2023-05-23T06:28:45.658Z,14.42
2023-05-23T06:31:16.416Z,14.48
2023-05-23T06:33:43.863Z,14.75
2023-05-23T06:36:14.462Z,14.90
2023-05-23T06:38:49.535Z,15.20
2023-05-23T06:41:17.301Z,15.09
2023-05-23T06:43:47.287Z,14.83
2023-05-23T06:46:21.079Z,15.62
2023-05-23T06:49:13.773Z,14.58
2023-05-23T06:51:42.612Z,14.55
2023-05-23T06:54:22.484Z,15.47
2023-05-23T06:56:50.164Z,15.80
2023-05-23T06:59:25.048Z,16.04
2023-05-23T07:01:55.077Z,15.98
2023-05-23T07:04:24.056Z,15.36
2023-05-23T07:06:54.966Z,16.15
2023-05-23T07:09:23.026Z,16.79
2023-05-23T07:11:49.929Z,16.72
2023-05-23T07:14:16.749Z,17.05
2023-05-23T07:16:48.257Z,16.72
2023-05-23T07:19:36.695Z,16.94
2023-05-23T07:22:04.284Z,16.67
2023-05-23T07:24:32.549Z,16.49
2023-05-23T07:27:04.141Z,17.05
2023-05-23T07:29:36.919Z,16.46
2023-05-23T07:32:03.969Z,17.14
2023-05-23T07:34:30.780Z,17.17
2023-05-23T07:36:57.843Z,17.48
2023-05-23T07:39:24.712Z,17.35
2023-05-23T07:41:52.744Z,17.47
2023-05-23T07:44:22.441Z,17.90
2023-05-23T07:46:51.806Z,18.21
2023-05-23T07:49:19.200Z,18.32
2023-05-23T07:51:45.861Z,18.20
2023-05-23T07:54:15.117Z,18.53
2023-05-23T07:56:43.577Z,18.90
2023-05-23T07:59:10.449Z,19.42
2023-05-23T08:01:37.600Z,19.37
2023-05-23T08:04:04.705Z,19.30
2023-05-23T08:06:32.063Z,19.40
2023-05-23T08:09:00.678Z,19.61
2023-05-23T08:11:31.288Z,19.64
2023-05-23T08:14:01.566Z,19.62
2023-05-23T08:16:28.642Z,19.76
2023-05-23T08:18:55.561Z,19.94
2023-05-23T08:21:23.403Z,20.00
2023-05-23T08:23:50.537Z,20.25
2023-05-23T08:26:17.446Z,20.31
2023-05-23T08:28:44.271Z,20.12
2023-05-23T08:31:11.941Z,20.07
2023-05-23T08:33:38.667Z,20.29
2023-05-23T08:36:05.584Z,20.41
2023-05-23T08:38:32.574Z,20.52
2023-05-23T08:41:02.252Z,20.39
2023-05-23T08:43:29.511Z,19.92
2023-05-23T08:45:57.558Z,20.37
2023-05-23T08:48:27.163Z,20.23
2023-05-23T08:50:54.211Z,20.43
2023-05-23T08:53:23.608Z,20.32
2023-05-23T08:55:55.724Z,20.25
2023-05-23T08:58:24.827Z,20.13
2023-05-23T09:00:53.823Z,20.23
2023-05-23T09:03:21.209Z,20.33
2023-05-23T09:05:49.831Z,20.64
2023-05-23T09:08:17.003Z,20.74
2023-05-23T09:10:43.790Z,20.40
2023-05-23T09:13:10.592Z,20.75
2023-05-23T09:15:37.862Z,21.05
2023-05-23T09:18:04.677Z,21.41
2023-05-23T09:20:31.845Z,21.34
2023-05-23T09:22:58.515Z,21.55
2023-05-23T09:25:25.221Z,21.56
2023-05-23T09:27:53.495Z,21.29
2023-05-23T09:30:20.193Z,21.30
2023-05-23T09:33:02.182Z,21.24
2023-05-23T09:35:31.979Z,21.22
2023-05-23T09:38:01.836Z,21.32
2023-05-23T09:40:32.753Z,21.49
2023-05-23T09:43:04.316Z,21.39
2023-05-23T09:45:32.230Z,21.60
2023-05-23T09:47:59.595Z,21.63
2023-05-23T09:50:32.459Z,21.71
2023-05-23T09:53:00.662Z,21.83
2023-05-23T09:55:27.796Z,21.84
2023-05-23T09:57:57.029Z,21.93
2023-05-23T10:00:28.519Z,22.24
2023-05-23T10:03:12.700Z,21.99
2023-05-23T10:05:49.427Z,21.83
2023-05-23T10:08:26.862Z,22.09
2023-05-23T10:11:17.115Z,22.30
2023-05-23T10:13:45.786Z,22.43
2023-05-23T10:16:19.306Z,21.64
2023-05-23T10:18:52.917Z,21.73
2023-05-23T10:21:24.924Z,22.18
2023-05-23T10:23:52.201Z,22.53
2023-05-23T10:26:19.428Z,22.38
2023-05-23T10:28:47.450Z,22.27
2023-05-23T10:31:14.300Z,22.63
2023-05-23T10:33:49.774Z,22.80
2023-05-23T10:36:26.023Z,22.94
2023-05-23T10:39:19.984Z,22.58
2023-05-23T10:41:56.594Z,22.42
2023-05-23T10:44:31.186Z,22.53
2023-05-23T10:47:02.272Z,22.60
2023-05-23T10:49:46.828Z,22.64
2023-05-23T10:52:16.389Z,22.92
2023-05-23T10:54:49.065Z,22.51
2023-05-23T10:57:27.018Z,22.50
2023-05-23T10:59:54.433Z,22.84
2023-05-23T11:02:28.606Z,22.90
2023-05-23T11:05:24.632Z,22.54
2023-05-23T11:08:10.001Z,22.75
2023-05-23T11:11:02.614Z,23.25
2023-05-23T11:13:54.106Z,22.94
2023-05-23T11:16:41.075Z,22.78
2023-05-23T11:19:23.252Z,22.86
2023-05-23T11:21:55.278Z,22.87
2023-05-23T11:24:22.692Z,22.48
2023-05-23T11:27:02.923Z,22.83
2023-05-23T11:29:30.532Z,23.09
2023-05-23T11:31:57.634Z,22.89
2023-05-23T11:34:27.776Z,23.26
2023-05-23T11:36:57.668Z,23.03
2023-05-23T11:39:24.526Z,23.40
2023-05-23T11:42:04.140Z,23.33
2023-05-23T11:44:31.049Z,22.96
2023-05-23T11:47:07.834Z,22.70
2023-05-23T11:49:39.254Z,22.31
2023-05-23T11:52:07.565Z,22.65
2023-05-23T11:54:34.442Z,23.04
2023-05-23T11:57:03.735Z,23.63
2023-05-23T11:59:30.608Z,23.28
2023-05-23T12:01:59.981Z,22.43
2023-05-23T12:04:27.594Z,22.77
2023-05-23T12:06:54.855Z,23.37
2023-05-23T12:09:21.957Z,23.60
2023-05-23T12:11:49.367Z,23.47
2023-05-23T12:14:18.186Z,23.49
2023-05-23T12:16:47.323Z,24.23
2023-05-23T12:19:17.608Z,24.75
2023-05-23T12:21:50.631Z,24.49
2023-05-23T12:24:19.951Z,24.12
2023-05-23T12:26:59.388Z,24.10
2023-05-23T12:29:35.671Z,23.63
2023-05-23T12:32:04.462Z,23.82
2023-05-23T12:34:31.375Z,24.11
2023-05-23T12:37:14.723Z,24.19
2023-05-23T12:39:45.496Z,23.71
2023-05-23T12:42:12.599Z,23.91
2023-05-23T12:44:42.198Z,23.71
2023-05-23T12:47:09.312Z,23.76
2023-05-23T12:49:36.251Z,23.43
2023-05-23T12:52:02.993Z,23.88
2023-05-23T12:54:29.840Z,23.85
2023-05-23T12:56:56.544Z,23.49
2023-05-23T12:59:23.900Z,23.18
2023-05-23T13:01:50.816Z,22.69
2023-05-23T13:04:17.974Z,23.13
2023-05-23T13:06:44.894Z,23.41
2023-05-23T13:09:11.565Z,23.26
2023-05-23T13:11:38.333Z,23.11
2023-05-23T13:14:05.119Z,23.36
2023-05-23T13:16:33.176Z,23.54
2023-05-23T13:19:00.217Z,23.51
2023-05-23T13:21:27.772Z,24.10
2023-05-23T13:23:54.546Z,24.36
2023-05-23T13:26:21.933Z,24.40
2023-05-23T13:28:48.688Z,24.44
2023-05-23T13:31:15.447Z,24.58
2023-05-23T13:33:42.642Z,24.63
2023-05-23T13:36:09.490Z,24.43
2023-05-23T13:38:36.432Z,24.33
2023-05-23T13:41:03.107Z,24.13
2023-05-23T13:43:29.917Z,23.78
2023-05-23T13:45:56.631Z,23.92
2023-05-23T13:48:23.549Z,23.93
2023-05-23T13:50:50.331Z,24.17
2023-05-23T13:53:17.375Z,24.48
2023-05-23T13:55:45.375Z,24.55
2023-05-23T13:58:12.832Z,24.55
2023-05-23T14:00:40.199Z,24.17
2023-05-23T14:03:08.628Z,24.31
2023-05-23T14:05:36.500Z,23.92
2023-05-23T14:08:04.604Z,23.56
2023-05-23T14:10:33.420Z,23.48
2023-05-23T14:13:00.476Z,23.10
2023-05-23T14:15:28.057Z,22.87
2023-05-23T14:17:56.092Z,22.61
2023-05-23T14:20:24.008Z,22.39
2023-05-23T14:22:51.680Z,22.44
2023-05-23T14:25:19.297Z,22.44
2023-05-23T14:27:46.457Z,22.97
2023-05-23T14:30:13.605Z,23.23
2023-05-23T14:32:40.485Z,23.37
2023-05-23T14:35:09.829Z,23.07
2023-05-23T14:37:37.186Z,23.53
2023-05-23T14:40:05.854Z,23.88
2023-05-23T14:42:32.837Z,24.20
2023-05-23T14:44:59.561Z,24.08
2023-05-23T14:47:26.750Z,24.16
2023-05-23T14:49:53.777Z,24.12
2023-05-23T14:52:20.690Z,23.92
2023-05-23T14:54:47.508Z,24.13
2023-05-23T14:57:14.236Z,23.84
2023-05-23T14:59:41.093Z,23.83
2023-05-23T15:02:08.266Z,23.86
2023-05-23T15:04:36.724Z,23.85
2023-05-23T15:07:03.910Z,23.47
2023-05-23T15:09:30.626Z,23.78
2023-05-23T15:11:57.363Z,23.91
2023-05-23T15:14:29.256Z,23.79
2023-05-23T15:17:13.149Z,23.86
2023-05-23T15:19:43.066Z,24.18
2023-05-23T15:22:18.385Z,24.31
2023-05-23T15:24:49.284Z,24.37
2023-05-23T15:27:20.660Z,24.52
2023-05-23T15:29:48.020Z,24.43
2023-05-23T15:32:14.766Z,23.77
2023-05-23T15:34:41.525Z,23.91
2023-05-23T15:37:08.354Z,23.96
2023-05-23T15:39:35.752Z,24.02
2023-05-23T15:42:03.475Z,23.86
2023-05-23T15:44:30.255Z,23.58
2023-05-23T15:46:56.967Z,23.72
2023-05-23T15:49:26.865Z,23.59
2023-05-23T15:51:55.329Z,23.65
2023-05-23T15:54:22.326Z,23.58
2023-05-23T15:56:49.188Z,23.38
2023-05-23T15:59:15.922Z,23.26
2023-05-23T16:01:42.860Z,23.37
2023-05-23T16:04:09.846Z,23.17
2023-05-23T16:06:37.019Z,23.37
2023-05-23T16:09:03.903Z,23.28
2023-05-23T16:11:30.876Z,23.19
2023-05-23T16:13:58.193Z,23.02
2023-05-23T16:16:24.914Z,22.86
2023-05-23T16:18:51.727Z,22.87
2023-05-23T16:21:20.763Z,22.85
2023-05-23T16:23:51.057Z,22.83
2023-05-23T16:26:19.020Z,23.00
2023-05-23T16:28:45.778Z,23.11
2023-05-23T16:31:17.010Z,23.02
2023-05-23T16:33:44.571Z,22.89
2023-05-23T16:36:11.421Z,22.82
2023-05-23T16:38:38.135Z,22.80
2023-05-23T16:41:04.835Z,22.72
2023-05-23T16:43:31.948Z,22.67
2023-05-23T16:45:58.962Z,22.50
2023-05-23T16:48:25.881Z,22.32
2023-05-23T16:50:57.047Z,22.32
2023-05-23T16:53:24.717Z,22.00
2023-05-23T16:55:51.800Z,21.71
2023-05-23T16:58:20.865Z,21.56
2023-05-23T17:00:48.777Z,21.10
2023-05-23T17:03:15.998Z,21.20
2023-05-23T17:05:43.282Z,21.09
2023-05-23T17:08:10.947Z,21.02
2023-05-23T17:10:37.827Z,20.86
2023-05-23T17:13:04.779Z,20.65
2023-05-23T17:15:32.021Z,20.42
2023-05-23T17:17:58.773Z,20.44
2023-05-23T17:20:27.151Z,20.35
2023-05-23T17:22:55.146Z,20.31
2023-05-23T17:25:22.163Z,20.24
2023-05-23T17:27:48.795Z,20.13
2023-05-23T17:30:18.562Z,20.04
2023-05-23T17:32:46.698Z,19.88
2023-05-23T17:35:13.711Z,19.92
2023-05-23T17:37:43.744Z,19.85
2023-05-23T17:40:14.221Z,19.58
2023-05-23T17:42:41.527Z,19.48
2023-05-23T17:45:12.422Z,19.50
2023-05-23T17:47:39.449Z,19.33
2023-05-23T17:50:07.536Z,19.27
2023-05-23T17:52:34.957Z,19.18
2023-05-23T17:55:02.280Z,19.19
2023-05-23T17:57:31.123Z,19.04
2023-05-23T17:59:58.299Z,19.03
2023-05-23T18:02:25.458Z,18.94
2023-05-23T18:04:52.156Z,18.75
2023-05-23T18:07:19.142Z,18.63
2023-05-23T18:09:47.169Z,18.58
2023-05-23T18:12:14.928Z,18.46
2023-05-23T18:14:42.647Z,18.33
2023-05-23T18:17:09.996Z,18.21
2023-05-23T18:19:36.939Z,17.87
2023-05-23T18:22:03.950Z,18.35
2023-05-23T18:24:30.633Z,18.11
2023-05-23T18:26:58.241Z,18.04
2023-05-23T18:29:25.524Z,18.07
2023-05-23T18:31:59.162Z,17.98
2023-05-23T18:34:31.441Z,17.54
2023-05-23T18:36:59.002Z,17.45
2023-05-23T18:39:26.323Z,17.04
2023-05-23T18:41:53.049Z,16.91
2023-05-23T18:44:21.219Z,17.24
2023-05-23T18:46:48.138Z,16.68
2023-05-23T18:49:15.000Z,17.09
2023-05-23T18:51:43.138Z,16.83
2023-05-23T18:54:10.016Z,17.06
2023-05-23T18:56:36.744Z,16.90
2023-05-23T18:59:03.499Z,17.03
2023-05-23T19:01:30.726Z,17.02
2023-05-23T19:03:58.052Z,17.00
2023-05-23T19:06:27.366Z,16.80
2023-05-23T19:08:54.152Z,16.76
2023-05-23T19:11:22.101Z,16.65
2023-05-23T19:13:49.049Z,16.60
2023-05-23T19:16:17.695Z,16.75
2023-05-23T19:18:44.528Z,16.62
2023-05-23T19:21:11.980Z,16.71
2023-05-23T19:23:38.797Z,16.63
2023-05-23T19:26:05.525Z,16.68
2023-05-23T19:28:46.803Z,16.63
2023-05-23T19:31:14.518Z,16.67
2023-05-23T19:33:41.862Z,16.65
2023-05-23T19:36:09.387Z,16.66
2023-05-23T19:38:36.720Z,16.05
2023-05-23T19:41:04.236Z,16.17
2023-05-23T19:43:31.416Z,16.33
2023-05-23T19:46:02.111Z,15.75
2023-05-23T19:48:32.635Z,16.24
2023-05-23T19:51:00.010Z,16.10
2023-05-23T19:53:31.931Z,16.06
2023-05-23T19:55:59.095Z,15.71
2023-05-23T19:58:33.123Z,15.57
2023-05-23T20:01:00.584Z,15.53
2023-05-23T20:03:28.447Z,15.27
2023-05-23T20:05:56.042Z,15.70
2023-05-23T20:08:23.661Z,15.47
2023-05-23T20:10:58.531Z,15.03
2023-05-23T20:13:28.605Z,14.71
2023-05-23T20:15:56.131Z,15.18
2023-05-23T20:18:26.038Z,15.30
2023-05-23T20:20:56.795Z,15.41
2023-05-23T20:23:32.970Z,14.53
2023-05-23T20:26:07.101Z,15.03
2023-05-23T20:28:39.864Z,14.87
2023-05-23T20:31:07.393Z,14.73
2023-05-23T20:33:39.992Z,14.35
2023-05-23T20:36:22.659Z,15.06
2023-05-23T20:38:59.932Z,14.56
2023-05-23T20:41:29.792Z,15.03
2023-05-23T20:43:57.126Z,14.82
2023-05-23T20:46:34.885Z,14.92
2023-05-23T20:49:02.465Z,14.83
2023-05-23T20:51:39.999Z,14.83
2023-05-23T20:54:11.272Z,14.77
2023-05-23T20:56:40.340Z,14.52
2023-05-23T20:59:12.666Z,14.52
2023-05-23T21:01:43.507Z,14.79
2023-05-23T21:04:18.110Z,14.54
2023-05-23T21:09:40.355Z,14.71
2023-05-23T21:12:19.055Z,14.63
2023-05-23T21:14:47.898Z,14.55
2023-05-23T21:17:21.924Z,14.41
2023-05-23T21:19:49.562Z,13.58
2023-05-23T21:22:20.275Z,14.23
2023-05-23T21:24:51.629Z,14.17
2023-05-23T21:27:19.754Z,13.56
2023-05-23T21:29:56.342Z,13.48
2023-05-23T21:32:26.823Z,14.07
2023-05-23T21:34:54.295Z,13.49
2023-05-23T21:37:24.418Z,13.77
2023-05-23T21:39:52.730Z,13.60
2023-05-23T21:42:21.470Z,13.65
2023-05-23T21:44:53.568Z,13.27
2023-05-23T21:47:21.760Z,13.55
2023-05-23T21:49:49.334Z,13.53
2023-05-23T21:52:23.306Z,13.35
2023-05-23T21:54:56.674Z,12.50
2023-05-23T21:57:26.692Z,12.76
2023-05-23T21:59:57.362Z,12.24
2023-05-23T22:02:24.995Z,12.95
2023-05-23T22:04:52.330Z,12.33
2023-05-23T22:07:20.404Z,12.62
2023-05-23T22:09:48.373Z,12.16
2023-05-23T22:12:16.035Z,12.04
2023-05-23T22:14:43.371Z,12.09
2023-05-23T22:17:14.731Z,12.20
2023-05-23T22:19:42.162Z,12.28
2023-05-23T22:22:18.443Z,11.54
2023-05-23T22:24:48.369Z,11.71
2023-05-23T22:27:16.119Z,12.42
2023-05-23T22:29:48.461Z,12.44
2023-05-23T22:32:15.853Z,12.20
2023-05-23T22:34:43.256Z,11.75
2023-05-23T22:37:10.528Z,12.38
2023-05-23T22:39:38.234Z,12.22
2023-05-23T22:42:09.055Z,11.82
2023-05-23T22:44:40.463Z,11.49
2023-05-23T22:47:13.817Z,11.34
2023-05-23T22:49:46.029Z,11.29
2023-05-23T22:52:16.950Z,11.78
2023-05-23T22:54:52.362Z,11.20
2023-05-23T22:57:28.872Z,11.59
2023-05-23T22:59:56.436Z,11.99
2023-05-23T23:02:23.181Z,11.70
2023-05-23T23:04:50.299Z,12.16
2023-05-23T23:07:17.096Z,12.19
2023-05-23T23:09:43.872Z,12.04
2023-05-23T23:12:10.690Z,12.26
2023-05-23T23:14:37.322Z,12.26
2023-05-23T23:17:05.010Z,12.24
2023-05-23T23:19:35.275Z,12.17
2023-05-23T23:22:02.213Z,12.03
2023-05-23T23:24:28.956Z,12.11
2023-05-23T23:26:55.695Z,12.13
2023-05-23T23:29:22.559Z,12.10
2023-05-23T23:31:49.294Z,12.10
2023-05-23T23:34:15.988Z,12.12
2023-05-23T23:36:42.669Z,12.20
2023-05-23T23:39:09.460Z,12.18
2023-05-23T23:41:36.102Z,12.18
2023-05-23T23:44:02.745Z,12.20
2023-05-23T23:46:29.409Z,12.04
2023-05-23T23:48:56.152Z,12.16
2023-05-23T23:51:22.913Z,12.11
2023-05-23T23:53:52.428Z,12.08
2023-05-23T23:56:20.065Z,12.05
2023-05-23T23:58:46.756Z,11.97
